sensor_id;sensor_type;location;lat;lon;timestamp;pressure;altitude;pressure_sealevel;temperature;humidity
29909;BME280;36247;51.952;6.146;2023-03-14T00:00:55;98785.34;;;11.05;100.00
29909;BME280;36247;51.952;6.146;2023-03-14T00:03:20;98764.06;;;11.08;100.00
29909;BME280;36247;51.952;6.146;2023-03-14T00:05:46;98771.25;;;11.03;100.00
29909;BME280;36247;51.952;6.146;2023-03-14T00:08:11;98775.75;;;11.00;100.00
29909;BME280;36247;51.952;6.146;2023-03-14T00:10:37;98758.09;;;11.00;100.00
29909;BME280;36247;51.952;6.146;2023-03-14T00:13:04;98758.09;;;11.00;100.00
29909;BME280;36247;51.952;6.146;2023-03-14T00:15:29;98752.78;;;10.99;100.00
29909;BME280;36247;51.952;6.146;2023-03-14T00:17:55;98754.44;;;11.04;100.00
29909;BME280;36247;51.952;6.146;2023-03-14T00:20:20;98765.06;;;11.03;100.00
29909;BME280;36247;51.952;6.146;2023-03-14T00:22:45;98764.50;;;10.88;100.00
29909;BME280;36247;51.952;6.146;2023-03-14T00:25:11;98767.56;;;10.67;100.00
29909;BME280;36247;51.952;6.146;2023-03-14T00:27:37;98764.41;;;10.48;100.00
29909;BME280;36247;51.952;6.146;2023-03-14T00:30:05;98757.59;;;10.34;100.00
29909;BME280;36247;51.952;6.146;2023-03-14T00:32:30;98768.25;;;10.30;100.00
29909;BME280;36247;51.952;6.146;2023-03-14T00:34:56;98777.06;;;10.30;100.00
29909;BME280;36247;51.952;6.146;2023-03-14T00:37:21;98772.72;;;10.26;100.00
29909;BME280;36247;51.952;6.146;2023-03-14T00:39:48;98764.91;;;10.20;100.00
29909;BME280;36247;51.952;6.146;2023-03-14T00:42:13;98771.00;;;10.23;100.00
29909;BME280;36247;51.952;6.146;2023-03-14T00:44:39;98761.28;;;10.26;100.00
29909;BME280;36247;51.952;6.146;2023-03-14T00:47:06;98765.69;;;10.25;100.00
29909;BME280;36247;51.952;6.146;2023-03-14T00:49:31;98755.94;;;10.29;100.00
29909;BME280;36247;51.952;6.146;2023-03-14T00:51:57;98763.81;;;10.33;100.00
29909;BME280;36247;51.952;6.146;2023-03-14T00:54:23;98758.50;;;10.32;100.00
29909;BME280;36247;51.952;6.146;2023-03-14T00:56:48;98761.13;;;10.35;100.00
29909;BME280;36247;51.952;6.146;2023-03-14T00:59:15;98772.53;;;10.38;100.00
29909;BME280;36247;51.952;6.146;2023-03-14T01:01:41;98767.31;;;10.34;100.00
29909;BME280;36247;51.952;6.146;2023-03-14T01:04:07;98771.75;;;10.33;100.00
29909;BME280;36247;51.952;6.146;2023-03-14T01:06:33;98778.72;;;10.37;100.00
29909;BME280;36247;51.952;6.146;2023-03-14T01:08:59;98775.09;;;10.43;100.00
29909;BME280;36247;51.952;6.146;2023-03-14T01:11:28;98794.47;;;10.45;100.00
29909;BME280;36247;51.952;6.146;2023-03-14T01:13:56;98784.56;;;10.55;100.00
29909;BME280;36247;51.952;6.146;2023-03-14T01:16:24;98785.41;;;10.58;100.00
29909;BME280;36247;51.952;6.146;2023-03-14T01:18:49;98786.34;;;10.54;100.00
29909;BME280;36247;51.952;6.146;2023-03-14T01:21:24;98787.28;;;10.52;100.00
29909;BME280;36247;51.952;6.146;2023-03-14T01:23:51;98779.34;;;10.52;100.00
29909;BME280;36247;51.952;6.146;2023-03-14T01:26:19;98779.25;;;10.56;100.00
29909;BME280;36247;51.952;6.146;2023-03-14T01:28:47;98794.25;;;10.57;100.00
29909;BME280;36247;51.952;6.146;2023-03-14T01:31:13;98797.78;;;10.56;100.00
29909;BME280;36247;51.952;6.146;2023-03-14T01:33:39;98777.63;;;10.49;100.00
29909;BME280;36247;51.952;6.146;2023-03-14T01:36:06;98779.41;;;10.49;100.00
29909;BME280;36247;51.952;6.146;2023-03-14T01:38:34;98767.97;;;10.47;100.00
29909;BME280;36247;51.952;6.146;2023-03-14T01:41:00;98773.38;;;10.42;100.00
29909;BME280;36247;51.952;6.146;2023-03-14T01:43:26;98780.31;;;10.46;100.00
29909;BME280;36247;51.952;6.146;2023-03-14T01:48:25;98754.78;;;10.45;100.00
29909;BME280;36247;51.952;6.146;2023-03-14T01:50:51;98753.09;;;10.39;100.00
29909;BME280;36247;51.952;6.146;2023-03-14T01:53:17;98744.44;;;10.28;100.00
29909;BME280;36247;51.952;6.146;2023-03-14T01:55:48;98741.78;;;10.30;100.00
29909;BME280;36247;51.952;6.146;2023-03-14T01:58:14;98743.56;;;10.29;100.00
29909;BME280;36247;51.952;6.146;2023-03-14T02:00:41;98749.81;;;10.25;100.00
29909;BME280;36247;51.952;6.146;2023-03-14T02:03:11;98732.91;;;10.32;100.00
29909;BME280;36247;51.952;6.146;2023-03-14T02:05:41;98738.34;;;10.24;100.00
29909;BME280;36247;51.952;6.146;2023-03-14T02:08:14;98733.97;;;10.22;100.00
29909;BME280;36247;51.952;6.146;2023-03-14T02:10:45;98737.53;;;10.21;100.00
29909;BME280;36247;51.952;6.146;2023-03-14T02:13:14;98727.00;;;10.18;100.00
29909;BME280;36247;51.952;6.146;2023-03-14T02:15:58;98725.19;;;10.21;100.00
29909;BME280;36247;51.952;6.146;2023-03-14T02:18:47;98730.44;;;10.23;100.00
29909;BME280;36247;51.952;6.146;2023-03-14T02:22:02;98739.22;;;10.25;100.00
29909;BME280;36247;51.952;6.146;2023-03-14T02:27:18;98742.03;;;10.16;100.00
29909;BME280;36247;51.952;6.146;2023-03-14T02:29:56;98752.91;;;10.00;100.00
29909;BME280;36247;51.952;6.146;2023-03-14T02:32:25;98766.41;;;9.82;100.00
29909;BME280;36247;51.952;6.146;2023-03-14T02:34:54;98763.09;;;9.70;100.00
29909;BME280;36247;51.952;6.146;2023-03-14T02:37:24;98756.91;;;9.70;100.00
29909;BME280;36247;51.952;6.146;2023-03-14T02:39:51;98759.59;;;9.68;100.00
29909;BME280;36247;51.952;6.146;2023-03-14T02:42:17;98772.84;;;9.65;100.00
29909;BME280;36247;51.952;6.146;2023-03-14T02:44:55;98759.88;;;9.50;100.00
29909;BME280;36247;51.952;6.146;2023-03-14T02:47:29;98767.09;;;9.37;100.00
29909;BME280;36247;51.952;6.146;2023-03-14T02:50:01;98774.25;;;9.30;100.00
29909;BME280;36247;51.952;6.146;2023-03-14T02:52:29;98753.13;;;9.30;100.00
29909;BME280;36247;51.952;6.146;2023-03-14T02:54:55;98759.31;;;9.28;100.00
29909;BME280;36247;51.952;6.146;2023-03-14T02:57:21;98749.63;;;9.27;100.00
29909;BME280;36247;51.952;6.146;2023-03-14T02:59:46;98751.41;;;9.28;100.00
29909;BME280;36247;51.952;6.146;2023-03-14T03:02:16;98760.22;;;9.25;100.00
29909;BME280;36247;51.952;6.146;2023-03-14T03:04:42;98741.00;;;9.17;100.00
29909;BME280;36247;51.952;6.146;2023-03-14T03:07:07;98749.88;;;9.10;100.00
29909;BME280;36247;51.952;6.146;2023-03-14T03:09:33;98744.66;;;9.07;100.00
29909;BME280;36247;51.952;6.146;2023-03-14T03:11:58;98754.34;;;9.03;100.00
29909;BME280;36247;51.952;6.146;2023-03-14T03:14:26;98748.22;;;9.03;100.00
29909;BME280;36247;51.952;6.146;2023-03-14T03:16:54;98749.94;;;9.07;100.00
29909;BME280;36247;51.952;6.146;2023-03-14T03:19:20;98737.53;;;9.10;100.00
29909;BME280;36247;51.952;6.146;2023-03-14T03:21:46;98745.31;;;9.23;100.00
29909;BME280;36247;51.952;6.146;2023-03-14T03:24:12;98745.22;;;9.29;100.00
29909;BME280;36247;51.952;6.146;2023-03-14T03:26:37;98744.31;;;9.28;100.00
29909;BME280;36247;51.952;6.146;2023-03-14T03:29:05;98747.88;;;9.27;100.00
29909;BME280;36247;51.952;6.146;2023-03-14T03:31:31;98743.44;;;9.29;100.00
29909;BME280;36247;51.952;6.146;2023-03-14T03:33:56;98732.81;;;9.34;100.00
29909;BME280;36247;51.952;6.146;2023-03-14T03:36:24;98725.69;;;9.39;100.00
29909;BME280;36247;51.952;6.146;2023-03-14T03:38:50;98727.41;;;9.40;100.00
29909;BME280;36247;51.952;6.146;2023-03-14T03:41:16;98721.25;;;9.41;100.00
29909;BME280;36247;51.952;6.146;2023-03-14T03:43:41;98722.22;;;9.35;100.00
29909;BME280;36247;51.952;6.146;2023-03-14T03:46:09;98718.69;;;9.37;100.00
29909;BME280;36247;51.952;6.146;2023-03-14T03:48:35;98717.78;;;9.38;100.00
29909;BME280;36247;51.952;6.146;2023-03-14T03:51:03;98705.38;;;9.43;100.00
29909;BME280;36247;51.952;6.146;2023-03-14T03:53:29;98714.09;;;9.46;100.00
29909;BME280;36247;51.952;6.146;2023-03-14T03:55:54;98705.41;;;9.40;100.00
29909;BME280;36247;51.952;6.146;2023-03-14T03:58:20;98717.69;;;9.44;100.00
29909;BME280;36247;51.952;6.146;2023-03-14T04:00:45;98712.50;;;9.38;100.00
29909;BME280;36247;51.952;6.146;2023-03-14T04:03:11;98717.75;;;9.39;100.00
29909;BME280;36247;51.952;6.146;2023-03-14T04:05:37;98717.75;;;9.39;100.00
29909;BME280;36247;51.952;6.146;2023-03-14T04:08:07;98707.16;;;9.41;100.00
29909;BME280;36247;51.952;6.146;2023-03-14T04:10:36;98711.47;;;9.45;100.00
29909;BME280;36247;51.952;6.146;2023-03-14T04:13:08;98705.38;;;9.43;100.00
29909;BME280;36247;51.952;6.146;2023-03-14T04:15:35;98701.84;;;9.44;100.00
29909;BME280;36247;51.952;6.146;2023-03-14T04:18:07;98698.22;;;9.48;100.00
29909;BME280;36247;51.952;6.146;2023-03-14T04:20:34;98692.00;;;9.52;100.00
29909;BME280;36247;51.952;6.146;2023-03-14T04:23:00;98694.72;;;9.47;100.00
29909;BME280;36247;51.952;6.146;2023-03-14T04:25:26;98696.44;;;9.50;100.00
29909;BME280;36247;51.952;6.146;2023-03-14T04:27:54;98697.31;;;9.50;100.00
29909;BME280;36247;51.952;6.146;2023-03-14T04:30:23;98701.72;;;9.50;100.00
29909;BME280;36247;51.952;6.146;2023-03-14T04:32:55;98705.31;;;9.46;100.00
29909;BME280;36247;51.952;6.146;2023-03-14T04:35:24;98695.56;;;9.48;100.00
29909;BME280;36247;51.952;6.146;2023-03-14T04:37:53;98700.84;;;9.51;100.00
29909;BME280;36247;51.952;6.146;2023-03-14T04:40:20;98699.97;;;9.49;100.00
29909;BME280;36247;51.952;6.146;2023-03-14T04:42:46;98698.25;;;9.46;100.00
29909;BME280;36247;51.952;6.146;2023-03-14T04:45:12;98704.50;;;9.42;100.00
29909;BME280;36247;51.952;6.146;2023-03-14T04:47:40;98690.41;;;9.42;100.00
29909;BME280;36247;51.952;6.146;2023-03-14T04:50:07;98696.66;;;9.38;100.00
29909;BME280;36247;51.952;6.146;2023-03-14T04:52:33;98694.00;;;9.38;100.00
29909;BME280;36247;51.952;6.146;2023-03-14T04:54:59;98691.41;;;9.34;100.00
29909;BME280;36247;51.952;6.146;2023-03-14T04:57:26;98686.13;;;9.34;100.00
29909;BME280;36247;51.952;6.146;2023-03-14T04:59:52;98684.31;;;9.38;100.00
29909;BME280;36247;51.952;6.146;2023-03-14T05:02:45;98675.53;;;9.36;100.00
29909;BME280;36247;51.952;6.146;2023-03-14T05:05:23;98681.69;;;9.37;100.00
29909;BME280;36247;51.952;6.146;2023-03-14T05:08:11;98674.69;;;9.32;100.00
29909;BME280;36247;51.952;6.146;2023-03-14T05:10:54;98684.31;;;9.37;100.00
29909;BME280;36247;51.952;6.146;2023-03-14T05:13:40;98683.34;;;9.44;100.00
29909;BME280;36247;51.952;6.146;2023-03-14T05:16:21;98686.09;;;9.36;100.00
29909;BME280;36247;51.952;6.146;2023-03-14T05:19:12;98690.66;;;9.26;100.00
29909;BME280;36247;51.952;6.146;2023-03-14T05:21:56;98697.00;;;9.14;100.00
29909;BME280;36247;51.952;6.146;2023-03-14T05:24:40;98694.47;;;9.05;100.00
29909;BME280;36247;51.952;6.146;2023-03-14T05:27:35;98682.25;;;8.98;100.00
29909;BME280;36247;51.952;6.146;2023-03-14T05:30:23;98680.59;;;8.91;100.00
29909;BME280;36247;51.952;6.146;2023-03-14T05:33:04;98678.06;;;8.83;100.00
29909;BME280;36247;51.952;6.146;2023-03-14T05:35:59;98678.16;;;8.77;100.00
29909;BME280;36247;51.952;6.146;2023-03-14T05:38:52;98679.00;;;8.79;100.00
29909;BME280;36247;51.952;6.146;2023-03-14T05:41:36;98678.13;;;8.78;100.00
29909;BME280;36247;51.952;6.146;2023-03-14T05:44:21;98680.75;;;8.80;100.00
29909;BME280;36247;51.952;6.146;2023-03-14T05:47:07;98667.56;;;8.78;100.00
29909;BME280;36247;51.952;6.146;2023-03-14T05:50:04;98674.53;;;8.84;100.00
29909;BME280;36247;51.952;6.146;2023-03-14T05:52:30;98672.81;;;8.80;100.00
29909;BME280;36247;51.952;6.146;2023-03-14T05:55:21;98672.81;;;8.80;100.00
29909;BME280;36247;51.952;6.146;2023-03-14T05:58:09;98678.19;;;8.74;100.00
29909;BME280;36247;51.952;6.146;2023-03-14T06:00:54;98676.41;;;8.76;100.00
29909;BME280;36247;51.952;6.146;2023-03-14T06:03:37;98683.38;;;8.80;100.00
29909;BME280;36247;51.952;6.146;2023-03-14T06:06:03;98675.50;;;8.78;100.00
29909;BME280;36247;51.952;6.146;2023-03-14T06:08:28;98682.47;;;8.82;100.00
29909;BME280;36247;51.952;6.146;2023-03-14T06:10:54;98685.91;;;8.88;100.00
29909;BME280;36247;51.952;6.146;2023-03-14T06:13:25;98670.03;;;8.91;100.00
29909;BME280;36247;51.952;6.146;2023-03-14T06:15:50;98667.31;;;8.95;100.00
29909;BME280;36247;51.952;6.146;2023-03-14T06:18:16;98668.13;;;9.02;100.00
29909;BME280;36247;51.952;6.146;2023-03-14T06:20:42;98663.66;;;9.04;100.00
29909;BME280;36247;51.952;6.146;2023-03-14T06:23:11;98660.97;;;9.09;100.00
29909;BME280;36247;51.952;6.146;2023-03-14T06:25:37;98666.22;;;9.10;100.00
29909;BME280;36247;51.952;6.146;2023-03-14T06:28:03;98673.22;;;9.13;100.00
29909;BME280;36247;51.952;6.146;2023-03-14T06:30:29;98660.00;;;9.14;100.00
29909;BME280;36247;51.952;6.146;2023-03-14T06:32:55;98684.75;;;9.07;100.00
29909;BME280;36247;51.952;6.146;2023-03-14T06:35:22;98681.25;;;9.07;100.00
29909;BME280;36247;51.952;6.146;2023-03-14T06:37:48;98677.75;;;9.06;100.00
29909;BME280;36247;51.952;6.146;2023-03-14T06:40:13;98669.88;;;9.00;100.00
29909;BME280;36247;51.952;6.146;2023-03-14T06:42:58;98676.97;;;8.98;100.00
29909;BME280;36247;51.952;6.146;2023-03-14T06:45:26;98672.53;;;9.00;100.00
29909;BME280;36247;51.952;6.146;2023-03-14T06:47:53;98676.06;;;9.00;100.00
29909;BME280;36247;51.952;6.146;2023-03-14T06:50:26;98677.78;;;9.05;100.00
29909;BME280;36247;51.952;6.146;2023-03-14T06:52:52;98672.50;;;9.05;100.00
29909;BME280;36247;51.952;6.146;2023-03-14T06:55:21;98682.97;;;9.11;100.00
29909;BME280;36247;51.952;6.146;2023-03-14T06:57:47;98685.50;;;9.17;100.00
29909;BME280;36247;51.952;6.146;2023-03-14T07:00:13;98681.13;;;9.14;100.00
29909;BME280;36247;51.952;6.146;2023-03-14T07:02:40;98697.91;;;9.10;100.00
29909;BME280;36247;51.952;6.146;2023-03-14T07:05:07;98682.03;;;9.12;100.00
29909;BME280;36247;51.952;6.146;2023-03-14T07:07:35;98691.72;;;9.13;100.00
29909;BME280;36247;51.952;6.146;2023-03-14T07:10:01;98691.69;;;9.16;100.00
29909;BME280;36247;51.952;6.146;2023-03-14T07:12:27;98688.09;;;9.20;100.00
29909;BME280;36247;51.952;6.146;2023-03-14T07:14:53;98693.38;;;9.20;100.00
29909;BME280;36247;51.952;6.146;2023-03-14T07:17:19;98703.94;;;9.22;100.00
29909;BME280;36247;51.952;6.146;2023-03-14T07:19:44;98703.91;;;9.23;100.00
29909;BME280;36247;51.952;6.146;2023-03-14T07:22:10;98696.72;;;9.31;100.00
29909;BME280;36247;51.952;6.146;2023-03-14T07:24:35;98687.91;;;9.32;100.00
29909;BME280;36247;51.952;6.146;2023-03-14T07:27:01;98701.97;;;9.34;100.00
29909;BME280;36247;51.952;6.146;2023-03-14T07:29:27;98692.31;;;9.32;100.00
29909;BME280;36247;51.952;6.146;2023-03-14T07:31:52;98704.66;;;9.31;100.00
29909;BME280;36247;51.952;6.146;2023-03-14T07:34:19;98706.34;;;9.35;100.00
29909;BME280;36247;51.952;6.146;2023-03-14T07:36:45;98718.69;;;9.37;100.00
29909;BME280;36247;51.952;6.146;2023-03-14T07:39:10;98728.31;;;9.41;100.00
29909;BME280;36247;51.952;6.146;2023-03-14T07:41:52;98722.97;;;9.44;100.00
29909;BME280;36247;51.952;6.146;2023-03-14T07:44:41;98735.38;;;9.39;100.00
29909;BME280;36247;51.952;6.146;2023-03-14T07:47:06;98735.50;;;9.31;100.00
29909;BME280;36247;51.952;6.146;2023-03-14T07:49:32;98748.75;;;9.28;100.00
29909;BME280;36247;51.952;6.146;2023-03-14T07:51:57;98790.22;;;9.24;100.00
29909;BME280;36247;51.952;6.146;2023-03-14T07:54:24;98803.63;;;9.06;100.00
29909;BME280;36247;51.952;6.146;2023-03-14T07:56:50;98800.28;;;8.94;100.00
29909;BME280;36247;51.952;6.146;2023-03-14T07:59:17;98807.47;;;8.81;100.00
29909;BME280;36247;51.952;6.146;2023-03-14T08:01:43;98817.25;;;8.70;100.00
29909;BME280;36247;51.952;6.146;2023-03-14T08:04:09;98822.72;;;8.55;100.00
29909;BME280;36247;51.952;6.146;2023-03-14T08:06:37;98838.75;;;8.32;100.00
29909;BME280;36247;51.952;6.146;2023-03-14T08:09:04;98850.34;;;8.10;100.00
29909;BME280;36247;51.952;6.146;2023-03-14T08:11:29;98854.94;;;7.85;100.00
29909;BME280;36247;51.952;6.146;2023-03-14T08:13:55;98870.69;;;7.94;100.00
29909;BME280;36247;51.952;6.146;2023-03-14T08:16:21;98874.28;;;7.86;100.00
29909;BME280;36247;51.952;6.146;2023-03-14T08:18:47;98886.59;;;7.81;100.00
29909;BME280;36247;51.952;6.146;2023-03-14T08:21:12;98897.25;;;7.64;100.00
29909;BME280;36247;51.952;6.146;2023-03-14T08:23:38;98906.03;;;7.59;100.00
29909;BME280;36247;51.952;6.146;2023-03-14T08:26:04;98911.34;;;7.53;100.00
29909;BME280;36247;51.952;6.146;2023-03-14T08:28:29;98911.38;;;7.47;100.00
29909;BME280;36247;51.952;6.146;2023-03-14T08:30:57;98923.66;;;7.51;100.00
29909;BME280;36247;51.952;6.146;2023-03-14T08:33:24;98930.66;;;7.60;100.00
29909;BME280;36247;51.952;6.146;2023-03-14T08:35:57;98937.66;;;7.59;100.00
29909;BME280;36247;51.952;6.146;2023-03-14T08:38:23;98940.25;;;7.66;100.00
29909;BME280;36247;51.952;6.146;2023-03-14T08:40:55;98944.59;;;7.79;100.00
29909;BME280;36247;51.952;6.146;2023-03-14T08:43:20;98958.75;;;7.58;100.00
29909;BME280;36247;51.952;6.146;2023-03-14T08:45:46;98964.91;;;7.60;100.00
29909;BME280;36247;51.952;6.146;2023-03-14T08:48:11;98970.13;;;7.69;100.00
29909;BME280;36247;51.952;6.146;2023-03-14T08:50:36;98973.63;;;7.71;100.00
29909;BME280;36247;51.952;6.146;2023-03-14T08:53:02;98995.63;;;7.59;100.00
29909;BME280;36247;51.952;6.146;2023-03-14T08:55:27;99008.88;;;7.41;100.00
29909;BME280;36247;51.952;6.146;2023-03-14T08:57:53;99021.19;;;7.28;100.00
29909;BME280;36247;51.952;6.146;2023-03-14T09:00:19;99046.69;;;7.14;100.00
29909;BME280;36247;51.952;6.146;2023-03-14T09:02:45;99065.13;;;7.20;100.00
29909;BME280;36247;51.952;6.146;2023-03-14T09:05:11;99066.00;;;7.19;100.00
29909;BME280;36247;51.952;6.146;2023-03-14T09:07:38;99083.56;;;7.12;100.00
29909;BME280;36247;51.952;6.146;2023-03-14T09:10:03;99094.94;;;6.85;100.00
29909;BME280;36247;51.952;6.146;2023-03-14T09:12:29;99108.97;;;6.68;100.00
29909;BME280;36247;51.952;6.146;2023-03-14T09:14:55;99108.09;;;6.59;100.00
29909;BME280;36247;51.952;6.146;2023-03-14T09:17:21;99126.53;;;6.68;100.00
29909;BME280;36247;51.952;6.146;2023-03-14T09:19:46;99136.06;;;6.29;100.00
29909;BME280;36247;51.952;6.146;2023-03-14T09:22:12;99151.88;;;6.44;100.00
29909;BME280;36247;51.952;6.146;2023-03-14T09:24:37;99165.16;;;6.78;100.00
29909;BME280;36247;51.952;6.146;2023-03-14T09:27:03;99180.84;;;6.50;100.00
29909;BME280;36247;51.952;6.146;2023-03-14T09:29:28;99178.19;;;6.44;100.00
29909;BME280;36247;51.952;6.146;2023-03-14T09:31:54;99196.56;;;6.29;100.00
29909;BME280;36247;51.952;6.146;2023-03-14T09:34:19;99208.75;;;6.16;100.00
29909;BME280;36247;51.952;6.146;2023-03-14T09:36:45;99230.72;;;6.26;100.00
29909;BME280;36247;51.952;6.146;2023-03-14T09:39:11;99232.25;;;5.93;100.00
29909;BME280;36247;51.952;6.146;2023-03-14T09:41:42;99243.41;;;5.62;100.00
29909;BME280;36247;51.952;6.146;2023-03-14T09:44:25;99260.16;;;5.77;100.00
29909;BME280;36247;51.952;6.146;2023-03-14T09:46:53;99270.91;;;6.03;100.00
29909;BME280;36247;51.952;6.146;2023-03-14T09:49:26;99271.16;;;6.46;100.00
29909;BME280;36247;51.952;6.146;2023-03-14T09:51:54;99286.28;;;6.92;100.00
29909;BME280;36247;51.952;6.146;2023-03-14T09:54:31;99297.84;;;7.48;100.00
29909;BME280;36247;51.952;6.146;2023-03-14T09:56:57;99299.63;;;7.86;100.00
29909;BME280;36247;51.952;6.146;2023-03-14T09:59:23;99310.13;;;7.46;100.00
29909;BME280;36247;51.952;6.146;2023-03-14T10:01:48;99318.94;;;7.57;100.00
29909;BME280;36247;51.952;6.146;2023-03-14T10:04:18;99335.59;;;7.46;100.00
29909;BME280;36247;51.952;6.146;2023-03-14T10:06:46;99339.91;;;7.23;100.00
29909;BME280;36247;51.952;6.146;2023-03-14T10:09:21;99352.25;;;7.35;100.00
29909;BME280;36247;51.952;6.146;2023-03-14T10:11:57;99351.41;;;7.46;100.00
29909;BME280;36247;51.952;6.146;2023-03-14T10:14:30;99368.13;;;7.54;100.00
29909;BME280;36247;51.952;6.146;2023-03-14T10:17:08;99380.34;;;7.27;100.00
29909;BME280;36247;51.952;6.146;2023-03-14T10:19:35;99398.69;;;7.12;100.00
29909;BME280;36247;51.952;6.146;2023-03-14T10:22:03;99411.13;;;7.40;100.00
29909;BME280;36247;51.952;6.146;2023-03-14T10:24:31;99420.72;;;7.23;100.00
29909;BME280;36247;51.952;6.146;2023-03-14T10:27:05;99429.50;;;7.27;100.00
29909;BME280;36247;51.952;6.146;2023-03-14T10:29:34;99447.09;;;7.37;100.00
29909;BME280;36247;51.952;6.146;2023-03-14T10:32:19;99453.91;;;6.92;100.00
29909;BME280;36247;51.952;6.146;2023-03-14T10:34:45;99469.53;;;6.71;100.00
29909;BME280;36247;51.952;6.146;2023-03-14T10:37:24;99483.56;;;6.66;100.00
29909;BME280;36247;51.952;6.146;2023-03-14T10:39:54;99489.50;;;6.46;100.00
29909;BME280;36247;51.952;6.146;2023-03-14T10:42:34;99505.41;;;6.57;100.00
29909;BME280;36247;51.952;6.146;2023-03-14T10:45:04;99508.19;;;6.79;100.00
29909;BME280;36247;51.952;6.146;2023-03-14T10:47:33;99529.44;;;7.00;100.00
29909;BME280;36247;51.952;6.146;2023-03-14T10:50:28;99537.06;;;6.68;100.00
29909;BME280;36247;51.952;6.146;2023-03-14T10:52:55;99552.22;;;6.98;100.00
29909;BME280;36247;51.952;6.146;2023-03-14T10:55:23;99560.06;;;6.89;100.00
29909;BME280;36247;51.952;6.146;2023-03-14T10:57:49;99558.44;;;7.08;100.00
29909;BME280;36247;51.952;6.146;2023-03-14T11:03:12;99581.78;;;6.65;100.00
29909;BME280;36247;51.952;6.146;2023-03-14T11:05:59;99616.38;;;6.19;100.00
29909;BME280;36247;51.952;6.146;2023-03-14T11:08:34;99640.97;;;5.60;100.00
29909;BME280;36247;51.952;6.146;2023-03-14T11:16:14;99648.03;;;6.30;100.00
29909;BME280;36247;51.952;6.146;2023-03-14T11:26:29;99673.41;;;7.04;100.00
29909;BME280;36247;51.952;6.146;2023-03-14T11:29:07;99677.75;;;6.98;100.00
29909;BME280;36247;51.952;6.146;2023-03-14T11:31:35;99684.81;;;7.02;100.00
29909;BME280;36247;51.952;6.146;2023-03-14T11:34:17;99690.13;;;8.40;100.00
29909;BME280;36247;51.952;6.146;2023-03-14T11:36:59;99705.03;;;8.20;100.00
29909;BME280;36247;51.952;6.146;2023-03-14T11:39:30;99712.00;;;8.16;100.00
29909;BME280;36247;51.952;6.146;2023-03-14T11:42:00;99722.44;;;7.94;100.00
29909;BME280;36247;51.952;6.146;2023-03-14T11:44:30;99729.19;;;7.54;100.00
29909;BME280;36247;51.952;6.146;2023-03-14T11:47:38;99736.13;;;7.44;100.00
29909;BME280;36247;51.952;6.146;2023-03-14T11:50:12;99731.94;;;7.71;100.00
29909;BME280;36247;51.952;6.146;2023-03-14T11:52:45;99733.78;;;7.80;100.00
29909;BME280;36247;51.952;6.146;2023-03-14T11:55:29;99744.94;;;7.51;100.00
29909;BME280;36247;51.952;6.146;2023-03-14T11:58:31;99754.59;;;7.47;100.00
29909;BME280;36247;51.952;6.146;2023-03-14T12:00:51;99767.13;;;7.74;100.00
29909;BME280;36247;51.952;6.146;2023-03-14T12:08:58;99792.09;;;7.18;100.00
29909;BME280;36247;51.952;6.146;2023-03-14T12:13:52;99787.25;;;10.62;100.00
29909;BME280;36247;51.952;6.146;2023-03-14T12:16:30;99793.16;;;11.29;100.00
29909;BME280;36247;51.952;6.146;2023-03-14T12:18:56;99807.59;;;10.57;100.00
29909;BME280;36247;51.952;6.146;2023-03-14T12:21:22;99831.09;;;8.69;100.00
29909;BME280;36247;51.952;6.146;2023-03-14T12:26:21;99816.06;;;11.38;100.00
29909;BME280;36247;51.952;6.146;2023-03-14T12:39:35;99887.44;;;8.69;94.42
29909;BME280;36247;51.952;6.146;2023-03-14T12:45:15;99892.81;;;8.86;92.38
29909;BME280;36247;51.952;6.146;2023-03-14T12:47:52;99889.84;;;8.40;82.33
29909;BME280;36247;51.952;6.146;2023-03-14T12:50:26;99896.00;;;8.42;75.19
29909;BME280;36247;51.952;6.146;2023-03-14T12:52:58;99912.47;;;8.11;71.95
29909;BME280;36247;51.952;6.146;2023-03-14T12:55:51;99913.44;;;8.20;77.77
29909;BME280;36247;51.952;6.146;2023-03-14T12:58:35;99905.66;;;8.38;74.47
29909;BME280;36247;51.952;6.146;2023-03-14T13:01:03;99923.63;;;8.82;80.28
29909;BME280;36247;51.952;6.146;2023-03-14T13:03:45;99939.38;;;8.72;73.62
29909;BME280;36247;51.952;6.146;2023-03-14T13:06:12;99928.03;;;8.87;79.96
29909;BME280;36247;51.952;6.146;2023-03-14T13:08:41;99942.34;;;9.23;72.67
29909;BME280;36247;51.952;6.146;2023-03-14T13:11:19;99932.59;;;9.09;69.27
29909;BME280;36247;51.952;6.146;2023-03-14T13:13:47;99940.75;;;9.66;74.42
29909;BME280;36247;51.952;6.146;2023-03-14T13:16:19;99948.66;;;9.56;71.48
29909;BME280;36247;51.952;6.146;2023-03-14T13:18:48;99954.81;;;9.56;71.95
29909;BME280;36247;51.952;6.146;2023-03-14T13:21:20;99975.97;;;9.56;69.73
29909;BME280;36247;51.952;6.146;2023-03-14T13:24:06;99970.69;;;9.62;73.24
29909;BME280;36247;51.952;6.146;2023-03-14T13:26:42;99989.22;;;9.67;72.81
29909;BME280;36247;51.952;6.146;2023-03-14T13:29:11;99982.13;;;9.58;75.31
29909;BME280;36247;51.952;6.146;2023-03-14T13:31:44;99985.84;;;10.33;66.97
29909;BME280;36247;51.952;6.146;2023-03-14T13:34:10;100000.03;;;10.58;64.90
29909;BME280;36247;51.952;6.146;2023-03-14T13:36:38;100000.03;;;10.46;62.93
29909;BME280;36247;51.952;6.146;2023-03-14T13:39:06;100017.59;;;10.17;63.44
29909;BME280;36247;51.952;6.146;2023-03-14T13:41:39;100023.88;;;10.53;66.04
29909;BME280;36247;51.952;6.146;2023-03-14T13:44:12;100030.03;;;10.52;65.27
29909;BME280;36247;51.952;6.146;2023-03-14T13:46:39;100029.94;;;10.12;59.50
29909;BME280;36247;51.952;6.146;2023-03-14T13:49:06;100045.97;;;11.02;57.04
29909;BME280;36247;51.952;6.146;2023-03-14T13:51:38;100044.91;;;11.74;57.14
29909;BME280;36247;51.952;6.146;2023-03-14T13:54:16;100051.19;;;11.48;51.74
29909;BME280;36247;51.952;6.146;2023-03-14T13:56:42;100064.34;;;11.80;50.13
29909;BME280;36247;51.952;6.146;2023-03-14T13:59:23;100080.03;;;12.42;50.49